Time;durP1;ratioP1;P1;durP2;ratioP2;P2;SDS_P1;SDS_P2;PMS_P1;PMS_P2;Temp;Humidity;BMP_temperature;BMP_pressure;BME280_temperature;BME280_humidity;BME280_pressure;Samples;Min_cycle;Max_cycle;Signal;HPM_P1;HPM_P2
2023/03/27 00:02:02;;;;;;;;;;;;;;;21.00;52.85;95984.43;584793;242;68453;-61
2023/03/27 00:04:29;;;;;;;;;;;;;;;20.99;51.81;95985.52;584623;241;68566;-61
2023/03/27 00:06:58;;;;;;;;;;;;;;;21.00;52.54;95988.98;584628;242;62927;-61
2023/03/27 00:09:25;;;;;;;;;;;;;;;21.00;53.69;95988.98;584247;242;69257;-61
2023/03/27 00:11:54;;;;;;;;;;;;;;;20.99;52.13;95982.86;584840;242;66350;-61
2023/03/27 00:14:22;;;;;;;;;;;;;;;20.98;53.32;95980.47;584676;242;64993;-63
2023/03/27 00:16:50;;;;;;;;;;;;;;;20.98;52.04;95975.94;584651;242;66438;-63
2023/03/27 00:19:20;;;;;;;;;;;;;;;20.99;51.89;95979.39;584736;242;68590;-63
2023/03/27 00:21:48;;;;;;;;;;;;;;;20.98;51.42;95975.94;584627;242;65059;-63
2023/03/27 00:24:16;;;;;;;;;;;;;;;20.97;52.69;95974.34;584718;242;66618;-63
2023/03/27 00:26:43;;;;;;;;;;;;;;;20.97;52.49;95968.20;584556;242;66983;-63
2023/03/27 00:29:12;;;;;;;;;;;;;;;20.95;52.92;95957.84;584780;242;65224;-63
2023/03/27 00:31:39;;;;;;;;;;;;;;;20.96;54.60;95967.42;584592;242;66567;-63
2023/03/27 00:34:07;;;;;;;;;;;;;;;20.96;53.28;95956.73;584655;242;68826;-63
2023/03/27 00:36:34;;;;;;;;;;;;;;;20.96;52.11;95951.40;584573;242;66173;-63
2023/03/27 00:39:02;;;;;;;;;;;;;;;20.94;52.78;95937.54;584719;242;68763;-63
2023/03/27 00:41:32;;;;;;;;;;;;;;;20.94;52.02;95936.75;584696;242;69181;-63
2023/03/27 00:44:02;;;;;;;;;;;;;;;20.95;53.31;95923.12;584760;242;62817;-63
2023/03/27 00:46:39;;;;;;;;;;;;;;;20.93;51.69;95922.61;583727;242;67117;-63
2023/03/27 00:49:08;;;;;;;;;;;;;;;20.94;52.59;95918.84;584773;242;68970;-64
2023/03/27 00:51:37;;;;;;;;;;;;;;;20.94;52.85;95916.17;584696;242;62943;-64
2023/03/27 00:54:05;;;;;;;;;;;;;;;20.93;52.42;95911.94;584838;242;66886;-64
2023/03/27 00:56:37;;;;;;;;;;;;;;;20.93;52.82;95898.58;584582;242;68893;-64
2023/03/27 00:59:04;;;;;;;;;;;;;;;20.92;52.72;95902.32;584582;242;66157;-65
2023/03/27 01:01:32;;;;;;;;;;;;;;;20.92;52.75;95896.19;584684;242;69496;-64
2023/03/27 01:04:01;;;;;;;;;;;;;;;20.92;51.93;95894.31;584657;241;66573;-62
2023/03/27 01:06:30;;;;;;;;;;;;;;;20.91;51.83;95883.94;584689;242;62827;-62
2023/03/27 01:08:58;;;;;;;;;;;;;;;20.92;52.40;95880.95;584722;242;68741;-62
2023/03/27 01:11:30;;;;;;;;;;;;;;;20.92;51.70;95882.84;583309;242;68897;-62
2023/03/27 01:14:05;;;;;;;;;;;;;;;20.91;53.29;95882.05;583010;242;64890;-64
2023/03/27 01:16:40;;;;;;;;;;;;;;;20.91;52.42;95873.26;584596;242;68714;-64
2023/03/27 01:19:25;;;;;;;;;;;;;;;20.91;52.02;95871.38;584651;242;68675;-64
2023/03/27 01:21:57;;;;;;;;;;;;;;;20.90;52.49;95866.31;584666;242;64935;-64
2023/03/27 01:24:26;;;;;;;;;;;;;;;20.89;52.79;95865.53;584687;242;68779;-64
2023/03/27 01:27:05;;;;;;;;;;;;;;;20.89;52.34;95860.19;584345;242;66736;-61
2023/03/27 01:29:43;;;;;;;;;;;;;;;20.89;51.10;95859.41;584637;242;65052;-63
2023/03/27 01:32:15;;;;;;;;;;;;;;;20.89;52.39;95859.41;584563;242;66634;-63
2023/03/27 01:35:01;;;;;;;;;;;;;;;20.88;52.92;95849.82;584669;242;68225;-63
2023/03/27 01:37:49;;;;;;;;;;;;;;;20.87;51.96;95853.56;584673;242;66063;-63
2023/03/27 01:40:18;;;;;;;;;;;;;;;20.86;51.66;95839.42;584595;242;69054;-62
2023/03/27 01:42:50;;;;;;;;;;;;;;;20.86;52.53;95828.75;584503;242;66502;-62
2023/03/27 01:45:20;;;;;;;;;;;;;;;20.86;54.03;95836.75;584718;242;62997;-62
2023/03/27 01:47:49;;;;;;;;;;;;;;;20.86;53.39;95834.08;584714;242;68722;-62
2023/03/27 01:50:18;;;;;;;;;;;;;;;20.85;51.66;95829.84;584624;242;69115;-62
2023/03/27 01:52:47;;;;;;;;;;;;;;;20.85;52.86;95824.50;584589;242;64879;-62
2023/03/27 01:55:18;;;;;;;;;;;;;;;20.85;52.21;95811.15;584458;242;69637;-60
2023/03/27 01:57:48;;;;;;;;;;;;;;;20.86;52.89;95811.94;584531;242;68675;-60
2023/03/27 02:00:20;;;;;;;;;;;;;;;20.86;52.03;95801.26;584541;242;65939;-60
2023/03/27 02:02:59;;;;;;;;;;;;;;;20.84;52.22;95805.03;584600;241;64819;-62
2023/03/27 02:05:28;;;;;;;;;;;;;;;20.84;52.13;95810.37;583457;242;68622;-63
2023/03/27 02:08:00;;;;;;;;;;;;;;;20.85;52.64;95805.81;580677;243;62912;-63
2023/03/27 02:10:30;;;;;;;;;;;;;;;20.84;54.09;95799.69;584191;242;68838;-63
2023/03/27 02:12:59;;;;;;;;;;;;;;;20.84;53.37;95804.21;584639;242;69342;-63
2023/03/27 02:15:28;;;;;;;;;;;;;;;20.83;51.65;95800.76;584622;242;65100;-63
2023/03/27 02:18:03;;;;;;;;;;;;;;;20.82;51.21;95793.84;584615;242;65024;-63
2023/03/27 02:20:26;;;;;;;;;;;;;;;20.82;51.01;95791.17;584537;242;66331;-63
2023/03/27 02:22:59;;;;;;;;;;;;;;;20.83;52.29;95783.95;580696;242;42696;-63
2023/03/27 02:25:27;;;;;;;;;;;;;;;20.83;53.02;95778.61;585200;242;66730;-63
2023/03/27 02:28:00;;;;;;;;;;;;;;;20.82;52.12;95775.16;585187;242;68738;-63
2023/03/27 02:30:32;;;;;;;;;;;;;;;20.82;52.06;95769.81;585295;242;63691;-63
2023/03/27 02:33:08;;;;;;;;;;;;;;;20.83;53.55;95762.59;584944;242;68777;-63
2023/03/27 02:35:40;;;;;;;;;;;;;;;20.80;51.88;95755.97;584914;242;69057;-63
2023/03/27 02:38:10;;;;;;;;;;;;;;;20.80;51.22;95750.63;570842;242;64242;-63
2023/03/27 02:40:52;;;;;;;;;;;;;;;20.82;52.87;95737.77;584656;242;47405;-63
2023/03/27 02:43:23;;;;;;;;;;;;;;;20.80;52.87;95745.28;577256;242;48661;-63
2023/03/27 02:45:55;;;;;;;;;;;;;;;20.79;52.10;95730.37;583147;242;65098;-63
2023/03/27 02:48:32;;;;;;;;;;;;;;;20.80;51.89;95733.82;584608;242;69433;-63
2023/03/27 02:51:01;;;;;;;;;;;;;;;20.79;51.63;95738.38;584639;242;68297;-63
2023/03/27 02:53:30;;;;;;;;;;;;;;;20.79;52.71;95732.25;584732;242;65664;-63
2023/03/27 02:56:00;;;;;;;;;;;;;;;20.80;53.72;95725.81;584668;242;68848;-63
2023/03/27 02:58:35;;;;;;;;;;;;;;;20.79;53.16;95721.57;584563;242;69161;-63
2023/03/27 03:01:08;;;;;;;;;;;;;;;20.78;52.44;95726.09;584570;242;42998;-62
2023/03/27 03:03:47;;;;;;;;;;;;;;;20.78;52.04;95712.75;583885;241;51140;-63
2023/03/27 03:06:16;;;;;;;;;;;;;;;20.78;51.54;95707.41;583987;242;51046;-63
2023/03/27 03:08:45;;;;;;;;;;;;;;;20.77;53.19;95719.19;584688;242;62931;-63
2023/03/27 03:11:13;;;;;;;;;;;;;;;20.77;52.11;95702.39;584664;242;69604;-63
2023/03/27 03:13:41;;;;;;;;;;;;;;;20.77;52.97;95694.37;584687;242;66939;-63
2023/03/27 03:16:09;;;;;;;;;;;;;;;20.77;52.84;95699.72;584758;242;64978;-63
2023/03/27 03:18:37;;;;;;;;;;;;;;;20.76;52.43;95685.58;584725;242;68564;-62
2023/03/27 03:21:04;;;;;;;;;;;;;;;20.76;52.20;95653.55;584620;242;68949;-61
2023/03/27 03:23:32;;;;;;;;;;;;;;;20.76;52.32;95660.73;584714;242;65159;-61
2023/03/27 03:26:01;;;;;;;;;;;;;;;20.76;53.70;95666.08;584568;242;69911;-61
2023/03/27 03:28:33;;;;;;;;;;;;;;;20.77;52.26;95654.33;584596;242;47171;-61
2023/03/27 03:31:01;;;;;;;;;;;;;;;20.75;51.34;95649.28;584607;242;64532;-61
2023/03/27 03:33:29;;;;;;;;;;;;;;;20.75;51.97;95646.61;583424;243;68750;-61
2023/03/27 03:36:00;;;;;;;;;;;;;;;20.76;52.07;95647.39;584256;243;66466;-61
2023/03/27 03:38:30;;;;;;;;;;;;;;;20.75;52.10;95645.83;584238;242;42005;-61
2023/03/27 03:40:59;;;;;;;;;;;;;;;20.75;53.21;95645.83;584429;242;69342;-61
2023/03/27 03:43:27;;;;;;;;;;;;;;;20.75;53.44;95632.47;584594;242;69376;-62
2023/03/27 03:45:55;;;;;;;;;;;;;;;20.75;52.99;95640.48;584579;242;62936;-61
2023/03/27 03:48:24;;;;;;;;;;;;;;;20.74;52.19;95633.58;584592;242;68972;-61
2023/03/27 03:50:53;;;;;;;;;;;;;;;20.74;53.47;95629.02;584562;242;69088;-62
2023/03/27 03:53:21;;;;;;;;;;;;;;;20.75;53.49;95619.13;584680;242;65008;-61
2023/03/27 03:55:51;;;;;;;;;;;;;;;20.74;53.28;95622.90;584613;242;68822;-61
2023/03/27 03:58:18;;;;;;;;;;;;;;;20.73;51.89;95607.95;584583;242;68727;-61
2023/03/27 04:00:46;;;;;;;;;;;;;;;20.73;53.41;95600.73;584698;242;62984;-62
2023/03/27 04:03:15;;;;;;;;;;;;;;;20.73;52.75;95606.06;584257;241;50388;-61
2023/03/27 04:05:44;;;;;;;;;;;;;;;20.71;52.46;95600.27;584790;242;68722;-61
2023/03/27 04:08:12;;;;;;;;;;;;;;;20.71;53.24;95594.92;584715;242;62981;-61
2023/03/27 04:10:44;;;;;;;;;;;;;;;20.72;51.72;95596.49;584697;242;50725;-60
2023/03/27 04:13:17;;;;;;;;;;;;;;;20.72;52.55;95603.72;584532;242;45986;-60
2023/03/27 04:15:46;;;;;;;;;;;;;;;20.71;52.70;95607.48;584493;242;46083;-61
2023/03/27 04:18:31;;;;;;;;;;;;;;;20.71;51.72;95607.48;584690;242;47119;-61
2023/03/27 04:20:53;;;;;;;;;;;;;;;20.70;53.04;95595.22;584073;242;68969;-63
2023/03/27 04:23:19;;;;;;;;;;;;;;;20.71;54.84;95580.80;584635;242;63005;-61
2023/03/27 04:25:48;;;;;;;;;;;;;;;20.69;52.40;95597.10;584526;242;49608;-61
2023/03/27 04:28:20;;;;;;;;;;;;;;;20.68;52.18;95579.52;584440;242;46052;-61
2023/03/27 04:30:49;;;;;;;;;;;;;;;20.70;54.28;95576.53;584554;242;64833;-61
2023/03/27 04:33:24;;;;;;;;;;;;;;;20.69;53.75;95566.95;584151;242;46957;-63
2023/03/27 04:36:00;;;;;;;;;;;;;;;20.69;53.25;95566.95;584632;242;50793;-63
2023/03/27 04:38:30;;;;;;;;;;;;;;;20.69;53.38;95566.95;583415;242;43574;-63
2023/03/27 04:41:00;;;;;;;;;;;;;;;20.69;53.89;95575.75;584369;242;69590;-63
2023/03/27 04:43:30;;;;;;;;;;;;;;;20.70;52.72;95579.20;584099;242;68758;-63
2023/03/27 04:45:58;;;;;;;;;;;;;;;20.71;53.64;95575.45;584759;242;63012;-63
2023/03/27 04:48:26;;;;;;;;;;;;;;;20.70;53.78;95573.86;584201;242;69233;-63
2023/03/27 04:50:54;;;;;;;;;;;;;;;20.70;55.71;95558.63;584635;242;69296;-61
2023/03/27 04:53:29;;;;;;;;;;;;;;;20.71;55.68;95540.75;584424;242;42106;-61
2023/03/27 04:55:57;;;;;;;;;;;;;;;20.71;53.86;95538.08;584096;242;66715;-61
2023/03/27 04:58:25;;;;;;;;;;;;;;;20.71;55.12;95524.73;579701;242;66755;-61
2023/03/27 05:00:54;;;;;;;;;;;;;;;20.72;54.63;95526.30;584149;242;66265;-61
2023/03/27 05:03:40;;;;;;;;;;;;;;;20.71;52.92;95525.52;584609;241;39375;-61
2023/03/27 05:06:12;;;;;;;;;;;;;;;20.73;53.97;95519.86;582870;242;49816;-61
2023/03/27 05:08:40;;;;;;;;;;;;;;;20.73;53.98;95536.66;584769;242;65654;-61
2023/03/27 05:11:10;;;;;;;;;;;;;;;20.74;52.44;95540.14;584469;242;46011;-61
2023/03/27 05:13:39;;;;;;;;;;;;;;;20.75;54.55;95544.38;584372;242;50872;-61
2023/03/27 05:16:08;;;;;;;;;;;;;;;20.77;53.45;95536.86;584644;242;62404;-61
2023/03/27 05:18:40;;;;;;;;;;;;;;;20.78;54.29;95523.19;584602;242;48702;-61
2023/03/27 05:21:07;;;;;;;;;;;;;;;20.78;53.25;95531.20;584583;242;68533;-61
2023/03/27 05:23:34;;;;;;;;;;;;;;;20.79;51.66;95530.12;584573;242;65102;-61
2023/03/27 05:26:02;;;;;;;;;;;;;;;20.80;53.95;95531.69;584603;242;69532;-61
2023/03/27 05:28:38;;;;;;;;;;;;;;;20.81;53.05;95532.47;584410;242;46293;-62
2023/03/27 05:31:09;;;;;;;;;;;;;;;20.82;52.64;95524.17;584770;242;65087;-62
2023/03/27 05:33:38;;;;;;;;;;;;;;;20.83;52.34;95524.95;584180;242;45832;-62
2023/03/27 05:36:09;;;;;;;;;;;;;;;20.85;51.68;95530.78;584678;242;45115;-62
2023/03/27 05:38:41;;;;;;;;;;;;;;;20.84;51.37;95521.98;584803;242;43944;-62
2023/03/27 05:41:11;;;;;;;;;;;;;;;20.86;52.52;95529.67;584362;242;47975;-62
2023/03/27 05:43:41;;;;;;;;;;;;;;;20.87;53.85;95536.61;584318;242;50822;-62
2023/03/27 05:46:09;;;;;;;;;;;;;;;20.87;53.48;95531.27;584780;242;65098;-62
2023/03/27 05:48:37;;;;;;;;;;;;;;;20.87;50.87;95525.94;584502;242;67970;-62
2023/03/27 05:51:05;;;;;;;;;;;;;;;20.90;53.43;95533.33;584660;242;68870;-62
2023/03/27 05:53:35;;;;;;;;;;;;;;;20.91;51.17;95531.44;584562;242;65238;-63
2023/03/27 05:56:22;;;;;;;;;;;;;;;20.90;50.68;95525.31;584482;242;47663;-63
2023/03/27 05:58:54;;;;;;;;;;;;;;;20.92;54.48;95511.64;584732;242;54017;-62
2023/03/27 06:01:23;;;;;;;;;;;;;;;20.91;53.46;95518.09;584582;242;62389;-61
2023/03/27 06:03:54;;;;;;;;;;;;;;;20.92;55.42;95492.95;581951;241;70122;-62
2023/03/27 06:06:22;;;;;;;;;;;;;;;20.91;52.33;95500.17;588170;241;50911;-62
2023/03/27 06:08:52;;;;;;;;;;;;;;;20.91;51.46;95494.05;588142;241;42446;-62
2023/03/27 06:11:20;;;;;;;;;;;;;;;20.91;50.91;95480.70;588227;241;67207;-63
2023/03/27 06:13:48;;;;;;;;;;;;;;;20.92;51.73;95501.74;587552;241;69158;-63
2023/03/27 06:16:19;;;;;;;;;;;;;;;20.94;52.39;95483.54;593723;238;46858;-63
2023/03/27 06:19:01;;;;;;;;;;;;;;;20.93;52.69;95492.66;593994;238;47082;-63
2023/03/27 06:21:29;;;;;;;;;;;;;;;20.95;53.06;95490.47;590538;239;66493;-64
2023/03/27 06:23:58;;;;;;;;;;;;;;;20.96;53.62;95476.02;593622;238;43981;-63
2023/03/27 06:26:27;;;;;;;;;;;;;;;20.97;52.19;95492.82;590516;239;66173;-63
2023/03/27 06:28:55;;;;;;;;;;;;;;;20.97;54.50;95472.23;593025;239;69569;-64
2023/03/27 06:31:23;;;;;;;;;;;;;;;20.98;49.92;95467.68;594168;238;62595;-63
2023/03/27 06:33:52;;;;;;;;;;;;;;;20.99;49.37;95462.05;593624;238;47456;-63
2023/03/27 06:36:22;;;;;;;;;;;;;;;21.00;50.55;95455.59;593961;236;44921;-62
2023/03/27 06:38:50;;;;;;;;;;;;;;;21.01;50.29;95443.05;599141;236;65157;-62
2023/03/27 06:41:18;;;;;;;;;;;;;;;21.02;49.77;95444.62;599720;236;66394;-61
2023/03/27 06:43:53;;;;;;;;;;;;;;;21.03;50.31;95452.33;599826;235;46154;-61
2023/03/27 06:46:26;;;;;;;;;;;;;;;21.04;49.55;95437.88;599355;236;47743;-62
2023/03/27 06:48:58;;;;;;;;;;;;;;;21.04;51.60;95440.55;599096;236;48430;-63
2023/03/27 06:51:26;;;;;;;;;;;;;;;21.06;49.03;95421.52;600009;236;66714;-62
2023/03/27 06:53:53;;;;;;;;;;;;;;;21.06;51.61;95422.33;600369;236;64896;-65
2023/03/27 06:56:21;;;;;;;;;;;;;;;21.07;51.76;95423.12;600232;236;69024;-64
2023/03/27 06:59:07;;;;;;;;;;;;;;;21.07;50.61;95393.73;600325;236;43385;-62
2023/03/27 07:01:35;;;;;;;;;;;;;;;21.06;48.23;95384.94;600152;236;63814;-62
2023/03/27 07:04:05;;;;;;;;;;;;;;;21.10;51.88;95374.41;599126;236;50661;-61
2023/03/27 07:06:47;;;;;;;;;;;;;;;21.10;50.75;95360.28;592896;236;48521;-62
2023/03/27 07:09:15;;;;;;;;;;;;;;;21.11;47.41;95351.16;599521;236;64864;-62
2023/03/27 07:11:44;;;;;;;;;;;;;;;21.12;48.98;95336.72;599490;236;46221;-62
2023/03/27 07:14:12;;;;;;;;;;;;;;;21.14;50.82;95339.84;599401;236;66194;-62
2023/03/27 07:16:39;;;;;;;;;;;;;;;21.14;50.05;95337.17;599501;236;63532;-61
2023/03/27 07:19:07;;;;;;;;;;;;;;;21.15;50.45;95334.20;598839;236;66591;-61
2023/03/27 07:21:36;;;;;;;;;;;;;;;21.15;49.83;95334.20;599268;236;69346;-61
2023/03/27 07:24:04;;;;;;;;;;;;;;;21.17;50.00;95312.50;598924;236;65669;-61
2023/03/27 07:26:33;;;;;;;;;;;;;;;21.17;49.17;95315.98;599347;236;69055;-61
2023/03/27 07:29:04;;;;;;;;;;;;;;;21.21;48.10;95326.83;598954;236;47459;-61
2023/03/27 07:31:32;;;;;;;;;;;;;;;21.21;47.47;95330.27;599020;236;65520;-61
2023/03/27 07:34:00;;;;;;;;;;;;;;;21.23;48.01;95311.28;598872;236;69258;-61
2023/03/27 07:36:32;;;;;;;;;;;;;;;21.24;48.75;95312.84;598137;236;46879;-61
2023/03/27 07:39:02;;;;;;;;;;;;;;;21.24;49.54;95312.84;598675;236;42216;-61
2023/03/27 07:41:30;;;;;;;;;;;;;;;21.25;46.62;95322.41;599037;236;66689;-61
2023/03/27 07:44:02;;;;;;;;;;;;;;;21.25;48.96;95323.22;598390;236;48478;-62
2023/03/27 07:46:34;;;;;;;;;;;;;;;21.28;49.80;95340.52;598995;236;42493;-62
2023/03/27 07:49:03;;;;;;;;;;;;;;;21.28;49.38;95340.52;599327;236;67450;-60
2023/03/27 07:51:33;;;;;;;;;;;;;;;21.28;47.18;95340.52;593718;236;70662;-61
2023/03/27 07:54:03;;;;;;;;;;;;;;;21.29;50.53;95339.41;597818;237;62500;-62
2023/03/27 07:56:32;;;;;;;;;;;;;;;21.30;51.48;95330.28;597737;237;48816;-60
2023/03/27 07:59:15;;;;;;;;;;;;;;;21.28;47.32;95348.53;589399;236;48841;-60
2023/03/27 08:01:44;;;;;;;;;;;;;;;21.30;52.14;95338.30;599089;236;65671;-60
2023/03/27 08:04:11;;;;;;;;;;;;;;;21.29;49.30;95339.41;597306;236;68647;-66
2023/03/27 08:06:41;;;;;;;;;;;;;;;21.29;48.02;95334.06;592746;236;71010;-62
2023/03/27 08:09:10;;;;;;;;;;;;;;;21.31;45.92;95342.56;593274;239;43928;-61
2023/03/27 08:11:40;;;;;;;;;;;;;;;21.31;48.24;95334.55;595656;237;69396;-61
2023/03/27 08:14:10;;;;;;;;;;;;;;;21.33;50.48;95312.84;596897;237;68518;-61
2023/03/27 08:16:38;;;;;;;;;;;;;;;21.32;49.88;95308.60;597577;237;65854;-61
2023/03/27 08:19:06;;;;;;;;;;;;;;;21.33;49.16;95320.85;597572;237;65666;-63
2023/03/27 08:21:35;;;;;;;;;;;;;;;21.32;49.75;95293.35;597396;237;45586;-65
2023/03/27 08:24:03;;;;;;;;;;;;;;;21.33;49.69;95294.91;597377;237;63000;-61
2023/03/27 08:26:36;;;;;;;;;;;;;;;21.34;49.46;95274.34;597353;237;49039;-61
2023/03/27 08:29:06;;;;;;;;;;;;;;;21.34;47.62;95285.81;597040;237;47188;-61
2023/03/27 08:31:34;;;;;;;;;;;;;;;21.36;46.22;95286.30;597401;237;62486;-62
2023/03/27 08:34:04;;;;;;;;;;;;;;;21.38;45.75;95291.34;597475;237;49958;-60
2023/03/27 08:36:45;;;;;;;;;;;;;;;21.39;49.70;95285.69;592203;238;69119;-62
2023/03/27 08:39:13;;;;;;;;;;;;;;;21.39;50.56;95290.23;597503;237;62515;-61
2023/03/27 08:41:50;;;;;;;;;;;;;;;21.39;50.72;95285.69;597224;237;50485;-62
2023/03/27 08:44:20;;;;;;;;;;;;;;;21.38;47.63;95284.10;597563;237;46620;-61
2023/03/27 08:46:49;;;;;;;;;;;;;;;21.39;48.12;95282.20;597644;237;64910;-63
2023/03/27 08:49:17;;;;;;;;;;;;;;;21.37;47.93;95266.51;597598;236;68908;-61
2023/03/27 08:51:49;;;;;;;;;;;;;;;21.37;48.78;95268.37;586355;237;48399;-61
2023/03/27 08:54:18;;;;;;;;;;;;;;;21.38;47.72;95256.59;597747;237;64950;-63
2023/03/27 08:56:47;;;;;;;;;;;;;;;21.37;47.76;95250.47;597665;236;68801;-61
2023/03/27 08:59:16;;;;;;;;;;;;;;;21.39;47.72;95242.12;597696;236;67218;-60
2023/03/27 09:02:02;;;;;;;;;;;;;;;21.40;50.83;95238.37;597721;237;65877;-61
2023/03/27 09:04:31;;;;;;;;;;;;;;;21.39;49.21;95236.78;598601;237;68934;-60
2023/03/27 09:07:17;;;;;;;;;;;;;;;21.40;48.08;95233.03;598993;237;66357;-60
2023/03/27 09:09:52;;;;;;;;;;;;;;;21.41;47.26;95229.24;592130;239;46363;-64
2023/03/27 09:12:21;;;;;;;;;;;;;;;21.41;46.00;95213.21;593562;239;68803;-62
2023/03/27 09:14:50;;;;;;;;;;;;;;;21.42;46.74;95212.91;593343;238;68976;-62
2023/03/27 09:17:19;;;;;;;;;;;;;;;21.42;47.01;95202.22;593237;238;62590;-63
2023/03/27 09:19:55;;;;;;;;;;;;;;;21.43;44.90;95189.64;593408;239;66707;-64
2023/03/27 09:22:28;;;;;;;;;;;;;;;21.45;51.39;95184.77;593368;238;46497;-63
2023/03/27 09:25:07;;;;;;;;;;;;;;;21.44;44.23;95181.31;593304;238;43806;-63
2023/03/27 09:27:46;;;;;;;;;;;;;;;21.45;47.38;95172.19;592017;239;47067;-63
2023/03/27 09:30:26;;;;;;;;;;;;;;;21.46;44.47;95176.41;588808;239;51386;-63
2023/03/27 09:33:00;;;;;;;;;;;;;;;21.46;45.15;95162.27;593631;238;44958;-67
2023/03/27 09:35:28;;;;;;;;;;;;;;;21.47;46.63;95156.62;593265;239;68526;-62
2023/03/27 09:37:57;;;;;;;;;;;;;;;21.48;44.87;95152.84;593005;239;68532;-62
2023/03/27 09:40:35;;;;;;;;;;;;;;;21.49;46.52;95146.37;592843;236;63845;-62
2023/03/27 09:43:05;;;;;;;;;;;;;;;21.50;45.62;95153.31;596131;236;69795;-62
2023/03/27 09:45:37;;;;;;;;;;;;;;;21.52;45.57;95154.87;593156;236;68712;-62
2023/03/27 09:48:06;;;;;;;;;;;;;;;21.53;47.14;95157.23;592685;238;65944;-63
2023/03/27 09:50:41;;;;;;;;;;;;;;;21.54;45.86;95158.02;593048;238;48345;-62
2023/03/27 09:53:12;;;;;;;;;;;;;;;21.55;46.73;95152.33;593715;238;45662;-61
2023/03/27 09:55:52;;;;;;;;;;;;;;;21.56;44.97;95145.91;594028;238;42989;-60
2023/03/27 09:58:23;;;;;;;;;;;;;;;21.57;45.09;95139.44;593614;238;46148;-61
2023/03/27 10:00:55;;;;;;;;;;;;;;;21.59;46.62;95133.79;593885;238;49050;-61
2023/03/27 10:03:27;;;;;;;;;;;;;;;21.61;47.11;95143.06;593087;238;46523;-61
2023/03/27 10:06:12;;;;;;;;;;;;;;;21.61;45.77;95137.71;593857;238;68864;-62
2023/03/27 10:08:50;;;;;;;;;;;;;;;21.63;44.75;95124.79;593573;238;49530;-62
2023/03/27 10:11:27;;;;;;;;;;;;;;;21.64;45.07;95115.69;594406;238;47982;-63
2023/03/27 10:14:00;;;;;;;;;;;;;;;21.66;44.64;95116.16;594523;238;48481;-62
2023/03/27 10:16:28;;;;;;;;;;;;;;;21.68;44.32;95150.58;587316;238;68715;-63
2023/03/27 10:19:00;;;;;;;;;;;;;;;21.70;44.40;95164.41;594184;238;43825;-64
2023/03/27 10:21:34;;;;;;;;;;;;;;;21.71;44.30;95160.63;588102;238;48275;-64
2023/03/27 10:24:21;;;;;;;;;;;;;;;21.72;46.14;95154.97;594673;238;69330;-64
2023/03/27 10:27:08;;;;;;;;;;;;;;;21.74;44.44;95154.63;588556;238;39232;-65
2023/03/27 10:29:37;;;;;;;;;;;;;;;21.75;44.19;95156.22;587744;241;47217;-63
2023/03/27 10:32:07;;;;;;;;;;;;;;;21.80;44.21;95155.23;587850;241;67532;-64
2023/03/27 10:35:02;;;;;;;;;;;;;;;21.80;44.01;95148.02;587591;241;47391;-62
2023/03/27 10:37:46;;;;;;;;;;;;;;;21.82;44.62;95159.16;581350;241;51247;-62
2023/03/27 10:40:36;;;;;;;;;;;;;;;21.86;44.03;95153.98;588373;241;41832;-63
2023/03/27 10:43:16;;;;;;;;;;;;;;;21.86;44.25;95138.71;588247;241;43487;-63
2023/03/27 10:45:45;;;;;;;;;;;;;;;21.88;44.25;95139.19;587939;241;69703;-63
2023/03/27 10:48:15;;;;;;;;;;;;;;;21.90;43.96;95104.08;588370;241;68910;-63
2023/03/27 10:50:51;;;;;;;;;;;;;;;21.91;44.47;95125.16;587982;239;66856;-65
2023/03/27 10:53:26;;;;;;;;;;;;;;;21.92;44.33;95129.39;583193;241;69591;-65
2023/03/27 10:56:09;;;;;;;;;;;;;;;21.93;44.07;95128.31;588357;241;66212;-64
2023/03/27 10:58:47;;;;;;;;;;;;;;;21.95;43.48;95123.40;587627;241;66070;-63
2023/03/27 11:01:17;;;;;;;;;;;;;;;21.97;43.81;95133.01;588271;241;69102;-62
2023/03/27 11:03:59;;;;;;;;;;;;;;;21.99;43.59;95128.91;587659;240;47113;-64
2023/03/27 11:06:29;;;;;;;;;;;;;;;22.01;43.50;95125.89;593068;238;65750;-64
2023/03/27 11:09:00;;;;;;;;;;;;;;;22.03;43.55;95121.02;593713;239;69167;-63
2023/03/27 11:11:30;;;;;;;;;;;;;;;22.04;43.37;95122.57;593680;239;66119;-63
2023/03/27 11:14:01;;;;;;;;;;;;;;;22.06;43.97;95142.55;593675;239;66253;-63
2023/03/27 11:16:33;;;;;;;;;;;;;;;22.07;43.69;95164.72;592151;239;68895;-64
2023/03/27 11:19:35;;;;;;;;;;;;;;;22.09;43.81;95143.79;593742;239;50513;-64
2023/03/27 11:22:23;;;;;;;;;;;;;;;22.10;43.01;95130.11;586263;238;47394;-64
2023/03/27 11:24:56;;;;;;;;;;;;;;;22.11;43.03;95138.91;593725;239;69659;-63
2023/03/27 11:27:26;;;;;;;;;;;;;;;22.12;43.34;95114.49;593715;239;68720;-62
2023/03/27 11:29:57;;;;;;;;;;;;;;;22.14;43.06;95111.50;593768;239;62774;-64
2023/03/27 11:32:38;;;;;;;;;;;;;;;22.14;43.11;95109.61;593446;239;68483;-63
2023/03/27 11:35:13;;;;;;;;;;;;;;;22.15;42.96;95105.84;593683;239;68739;-63
2023/03/27 11:37:47;;;;;;;;;;;;;;;22.18;42.83;95112.47;593737;238;46070;-65
2023/03/27 11:40:18;;;;;;;;;;;;;;;22.19;42.84;95114.03;593494;238;67423;-65
2023/03/27 11:42:47;;;;;;;;;;;;;;;22.21;42.94;95105.66;593757;239;68805;-60
2023/03/27 11:45:16;;;;;;;;;;;;;;;22.22;43.52;95089.30;593740;239;62455;-62
2023/03/27 11:48:02;;;;;;;;;;;;;;;22.24;43.05;95088.98;593681;239;68871;-63
2023/03/27 11:50:42;;;;;;;;;;;;;;;22.24;45.29;95081.73;593616;238;47214;-63
2023/03/27 11:53:28;;;;;;;;;;;;;;;22.26;46.71;95089.42;593650;238;65176;-62
2023/03/27 11:56:21;;;;;;;;;;;;;;;22.27;46.63;95102.48;593768;239;52001;-65
2023/03/27 11:59:09;;;;;;;;;;;;;;;22.30;46.75;95090.35;593663;238;45819;-65
2023/03/27 12:01:42;;;;;;;;;;;;;;;22.32;47.07;95086.24;593654;239;62811;-62
2023/03/27 12:04:20;;;;;;;;;;;;;;;22.34;47.92;95088.58;594203;238;68966;-62
2023/03/27 12:07:00;;;;;;;;;;;;;;;22.36;48.23;95087.14;594748;238;48244;-60
2023/03/27 12:09:35;;;;;;;;;;;;;;;22.38;47.25;95087.61;594564;238;65185;-62
2023/03/27 12:12:12;;;;;;;;;;;;;;;22.39;46.08;95081.13;593134;238;49280;-62
2023/03/27 12:14:45;;;;;;;;;;;;;;;22.41;47.18;95072.80;594661;238;68447;-64
2023/03/27 12:17:14;;;;;;;;;;;;;;;22.44;48.06;95068.69;594563;238;66163;-64
2023/03/27 12:19:45;;;;;;;;;;;;;;;22.46;47.80;95071.82;593582;238;50930;-63
2023/03/27 12:22:32;;;;;;;;;;;;;;;22.47;46.51;95076.05;594580;238;50776;-61
2023/03/27 12:25:05;;;;;;;;;;;;;;;22.50;46.12;95070.05;594881;238;65643;-62
2023/03/27 12:27:58;;;;;;;;;;;;;;;22.52;46.66;95063.25;589152;240;51138;-61
2023/03/27 12:30:30;;;;;;;;;;;;;;;22.53;46.70;95064.03;588907;240;46501;-62
2023/03/27 12:33:02;;;;;;;;;;;;;;;22.56;47.01;95058.02;591429;238;65330;-61
2023/03/27 12:35:32;;;;;;;;;;;;;;;22.57;45.54;95064.96;590164;238;69104;-63
2023/03/27 12:38:00;;;;;;;;;;;;;;;22.59;47.66;95074.23;594620;238;66292;-63
2023/03/27 12:40:31;;;;;;;;;;;;;;;22.60;46.84;95091.84;594210;238;41493;-63
2023/03/27 12:43:05;;;;;;;;;;;;;;;22.62;46.47;95088.86;594422;238;45571;-63
2023/03/27 12:45:32;;;;;;;;;;;;;;;22.64;46.71;95104.58;594728;238;68470;-63
2023/03/27 12:48:08;;;;;;;;;;;;;;;22.66;47.09;95137.95;594875;238;63054;-62
2023/03/27 12:50:41;;;;;;;;;;;;;;;22.68;47.17;95156.38;594620;238;65660;-62
2023/03/27 12:53:19;;;;;;;;;;;;;;;22.70;47.83;95159.49;594777;238;68475;-60
2023/03/27 12:55:47;;;;;;;;;;;;;;;22.71;47.38;95166.44;588276;238;65177;-60
2023/03/27 12:58:30;;;;;;;;;;;;;;;22.72;47.24;95179.48;594304;238;49524;-63
2023/03/27 13:01:01;;;;;;;;;;;;;;;22.73;46.26;95191.00;594491;238;50252;-63
2023/03/27 13:03:47;;;;;;;;;;;;;;;22.74;47.47;95212.08;592819;238;46342;-63
2023/03/27 13:06:21;;;;;;;;;;;;;;;22.74;47.29;95220.11;586843;239;67672;-64
2023/03/27 13:08:51;;;;;;;;;;;;;;;22.77;47.55;95224.03;593043;239;66690;-62
2023/03/27 13:11:31;;;;;;;;;;;;;;;22.79;47.34;95227.18;592839;239;43778;-63
2023/03/27 13:14:10;;;;;;;;;;;;;;;22.80;47.36;95240.23;593106;239;69379;-61